CheckWX is a tool to help pilots better visualize weather data.  It is not intended as a substitute for an official pre-flight weather briefing.

09:07:44 UTC

KCQW METAR
Cheraw Municipal / Lynch Bellinger Field Airport
Cheraw, South Carolina, USA
Current

13 mins ago

KCQW 210855Z AUTO 00000KT 13/12 A3028 RMK AO2
Observed
Sep-21 @ 08:55 UTC
Visibility
Temperature
13°C / 55°F
Dewpoint
12°C / 54°F
Humidity
94%
Altimeter
30.28" Hg
Pressure
1025.42 hPa
Previous

33 mins ago

KCQW 210835Z AUTO 00000KT 13/13 A3028 RMK AO2
Observed
Sep-21 @ 08:35 UTC
Visibility
Temperature
13°C / 55°F
Dewpoint
13°C / 55°F
Humidity
100%
Altimeter
30.28" Hg
Pressure
1025.42 hPa
Previous

53 mins ago

KCQW 210815Z AUTO 00000KT 13/13 A3028 RMK AO2
Observed
Sep-21 @ 08:15 UTC
Visibility
Temperature
13°C / 55°F
Dewpoint
13°C / 55°F
Humidity
100%
Altimeter
30.28" Hg
Pressure
1025.42 hPa